createdAt,value
2023-04-08T00:01:10.010Z,33.75
2023-04-08T00:03:37.431Z,32.92
2023-04-08T00:06:05.080Z,35.13
2023-04-08T00:08:32.380Z,36.85
2023-04-08T00:11:00.753Z,36.35
2023-04-08T00:13:28.185Z,37.92
2023-04-08T00:15:55.573Z,34.38
2023-04-08T00:18:24.004Z,33.20
2023-04-08T00:20:51.673Z,33.90
2023-04-08T00:23:20.253Z,33.33
2023-04-08T00:25:47.691Z,33.55
2023-04-08T00:28:15.048Z,37.85
2023-04-08T00:30:48.445Z,37.45
2023-04-08T00:33:16.896Z,38.03
2023-04-08T00:35:44.346Z,36.20
2023-04-08T00:38:11.872Z,34.58
2023-04-08T00:40:39.433Z,34.55
2023-04-08T00:43:07.098Z,34.50
2023-04-08T00:45:34.603Z,35.08
2023-04-08T00:48:03.762Z,33.90
2023-04-08T00:50:31.654Z,37.53
2023-04-08T00:52:59.209Z,36.47
2023-04-08T00:55:26.763Z,33.85
2023-04-08T00:57:54.277Z,33.63
2023-04-08T01:00:21.653Z,35.33
2023-04-08T01:03:12.040Z,35.20
2023-04-08T01:06:11.761Z,32.90
2023-04-08T01:08:42.571Z,33.63
2023-04-08T01:11:14.065Z,36.08
2023-04-08T01:13:43.644Z,35.08
2023-04-08T01:16:14.662Z,38.58
2023-04-08T01:18:45.371Z,38.28
2023-04-08T01:21:13.387Z,37.20
2023-04-08T01:24:11.820Z,37.33
2023-04-08T01:26:45.914Z,37.58
2023-04-08T01:29:21.622Z,38.60
2023-04-08T01:31:52.250Z,36.65
2023-04-08T01:34:21.516Z,35.78
2023-04-08T01:36:50.269Z,34.22
2023-04-08T01:39:19.661Z,35.08
2023-04-08T01:41:48.063Z,33.83
2023-04-08T01:44:17.372Z,34.55
2023-04-08T01:46:44.988Z,33.30
2023-04-08T01:49:12.801Z,34.28
2023-04-08T01:51:41.487Z,31.75
2023-04-08T01:54:08.776Z,33.50
2023-04-08T01:56:39.819Z,33.33
2023-04-08T01:59:12.427Z,34.03
2023-04-08T02:01:44.926Z,33.67
2023-04-08T02:04:14.067Z,34.53
2023-04-08T02:06:41.770Z,34.33
2023-04-08T02:09:08.873Z,34.13
2023-04-08T02:11:36.353Z,32.45
2023-04-08T02:14:04.928Z,33.85
2023-04-08T02:16:43.810Z,32.67
2023-04-08T02:19:51.876Z,32.42
2023-04-08T02:22:51.074Z,31.88
2023-04-08T02:25:23.572Z,33.28
2023-04-08T02:27:56.385Z,32.67
2023-04-08T02:30:28.177Z,33.22
2023-04-08T02:32:57.428Z,33.60
2023-04-08T02:35:25.389Z,33.03
2023-04-08T02:37:52.941Z,35.05
2023-04-08T02:40:29.660Z,34.17
2023-04-08T02:42:57.256Z,32.72
2023-04-08T02:45:42.202Z,33.50
2023-04-08T02:48:11.547Z,33.25
2023-04-08T02:50:40.108Z,32.72
2023-04-08T02:53:09.626Z,34.08
2023-04-08T02:55:37.314Z,33.75
2023-04-08T02:58:05.838Z,32.45
2023-04-08T03:00:33.205Z,32.78
2023-04-08T03:03:01.564Z,31.45
2023-04-08T03:05:29.203Z,32.78
2023-04-08T03:07:56.480Z,31.55
2023-04-08T03:10:25.096Z,31.92
2023-04-08T03:12:52.736Z,31.08
2023-04-08T03:15:19.976Z,30.88
2023-04-08T03:17:47.560Z,31.52
2023-04-08T03:20:15.982Z,33.83
2023-04-08T03:22:43.515Z,33.30
2023-04-08T03:25:11.977Z,35.20
2023-04-08T03:27:39.519Z,35.67
2023-04-08T03:30:13.113Z,36.05
2023-04-08T03:32:42.613Z,37.10
2023-04-08T03:35:16.275Z,36.83
2023-04-08T03:37:43.636Z,33.90
2023-04-08T03:40:11.662Z,32.40
2023-04-08T03:42:39.133Z,32.95
2023-04-08T03:45:06.971Z,31.08
2023-04-08T03:47:34.672Z,31.15
2023-04-08T03:50:04.134Z,32.88
2023-04-08T03:52:31.426Z,33.25
2023-04-08T03:54:58.957Z,34.40
2023-04-08T03:57:26.137Z,33.22
2023-04-08T03:59:56.947Z,30.33
2023-04-08T04:02:26.218Z,29.77
2023-04-08T04:04:53.562Z,27.42
2023-04-08T04:07:20.887Z,28.38
2023-04-08T04:09:54.370Z,26.20
2023-04-08T04:14:49.065Z,23.23
2023-04-08T04:17:16.684Z,22.52
2023-04-08T04:19:43.888Z,21.48
2023-04-08T04:22:11.011Z,23.05
2023-04-08T04:24:39.440Z,23.02
2023-04-08T04:27:06.802Z,24.65
2023-04-08T04:29:34.258Z,24.00
2023-04-08T04:32:01.669Z,22.88
2023-04-08T04:34:29.221Z,25.85
2023-04-08T04:36:56.939Z,25.15
2023-04-08T04:39:24.128Z,23.77
2023-04-08T04:41:51.926Z,24.27
2023-04-08T04:44:20.041Z,24.98
2023-04-08T04:46:47.598Z,25.15
2023-04-08T04:49:14.938Z,23.95
2023-04-08T04:51:42.665Z,26.48
2023-04-08T04:54:09.793Z,24.52
2023-04-08T04:56:37.343Z,26.02
2023-04-08T04:59:05.867Z,25.45
2023-04-08T05:01:35.749Z,27.08
2023-04-08T05:04:03.241Z,26.13
2023-04-08T05:06:31.915Z,27.45
2023-04-08T05:09:01.450Z,27.20
2023-04-08T05:11:29.781Z,27.38
2023-04-08T05:13:57.176Z,27.75
2023-04-08T05:16:24.775Z,27.55
2023-04-08T05:18:53.254Z,27.75
2023-04-08T05:21:21.872Z,26.45
2023-04-08T05:23:53.172Z,26.02
2023-04-08T05:26:22.156Z,25.75
2023-04-08T05:28:51.699Z,24.65
2023-04-08T05:31:31.495Z,26.20
2023-04-08T05:33:58.899Z,27.73
2023-04-08T05:36:27.634Z,26.55
2023-04-08T05:38:54.853Z,28.05
2023-04-08T05:41:24.304Z,26.95
2023-04-08T05:43:51.841Z,25.75
2023-04-08T05:46:19.301Z,26.65
2023-04-08T05:48:47.145Z,27.02
2023-04-08T05:51:18.350Z,26.42
2023-04-08T05:53:48.328Z,27.85
2023-04-08T05:56:22.126Z,25.17
2023-04-08T05:58:50.914Z,25.85
2023-04-08T06:01:18.451Z,26.20
2023-04-08T06:03:45.909Z,24.70
2023-04-08T06:06:13.389Z,25.15
2023-04-08T06:08:41.501Z,24.63
2023-04-08T06:11:08.851Z,27.48
2023-04-08T06:13:38.678Z,27.17
2023-04-08T06:16:15.231Z,26.52
2023-04-08T06:18:42.565Z,28.92
2023-04-08T06:21:12.029Z,28.83
2023-04-08T06:23:39.378Z,27.77
2023-04-08T06:26:06.715Z,27.75
2023-04-08T06:28:33.846Z,28.27
2023-04-08T06:31:01.322Z,27.40
2023-04-08T06:33:28.753Z,29.52
2023-04-08T06:36:04.397Z,30.60
2023-04-08T06:38:35.116Z,28.75
2023-04-08T06:41:06.831Z,27.15
2023-04-08T06:43:40.726Z,24.30
2023-04-08T06:46:10.065Z,23.83
2023-04-08T06:48:38.101Z,23.77
2023-04-08T06:51:08.326Z,23.70
2023-04-08T06:53:35.686Z,23.52
2023-04-08T06:56:03.073Z,24.40
2023-04-08T06:58:30.431Z,24.83
2023-04-08T07:01:01.654Z,23.58
2023-04-08T07:03:29.610Z,23.55
2023-04-08T07:05:57.104Z,23.42
2023-04-08T07:08:24.737Z,23.65
2023-04-08T07:10:53.381Z,23.58
2023-04-08T07:13:21.723Z,25.17
2023-04-08T07:15:49.004Z,23.48
2023-04-08T07:18:18.297Z,22.23
2023-04-08T07:20:54.102Z,22.10
2023-04-08T07:23:21.805Z,23.35
2023-04-08T07:25:49.431Z,20.20
2023-04-08T07:28:17.904Z,19.67
2023-04-08T07:30:45.424Z,20.33
2023-04-08T07:33:13.364Z,21.70
2023-04-08T07:35:42.356Z,20.70
2023-04-08T07:38:11.826Z,19.83
2023-04-08T07:40:40.058Z,20.85
2023-04-08T07:43:09.803Z,19.23
2023-04-08T07:45:36.821Z,19.13
2023-04-08T07:48:04.603Z,18.55
2023-04-08T07:50:32.016Z,18.77
2023-04-08T07:52:59.293Z,19.48
2023-04-08T07:55:26.916Z,21.88
2023-04-08T07:57:59.929Z,20.15
2023-04-08T08:00:28.220Z,21.35
2023-04-08T08:02:55.490Z,21.20
2023-04-08T08:05:22.867Z,21.27
2023-04-08T08:07:50.779Z,18.58
2023-04-08T08:10:19.318Z,18.90
2023-04-08T08:12:47.808Z,18.40
2023-04-08T08:15:15.483Z,19.23
2023-04-08T08:17:42.717Z,18.38
2023-04-08T08:20:10.788Z,17.17
2023-04-08T08:22:50.851Z,17.48
2023-04-08T08:25:26.237Z,17.35
2023-04-08T08:27:53.652Z,18.23
2023-04-08T08:30:22.599Z,17.55
2023-04-08T08:32:52.570Z,17.92
2023-04-08T08:35:21.183Z,18.05
2023-04-08T08:37:48.691Z,18.75
2023-04-08T08:40:17.064Z,18.25
2023-04-08T08:42:52.650Z,18.50
2023-04-08T08:45:22.721Z,17.65
2023-04-08T08:47:52.276Z,16.25
2023-04-08T08:50:19.978Z,16.05
2023-04-08T08:52:53.546Z,16.83
2023-04-08T08:58:14.748Z,15.65
2023-04-08T09:00:47.836Z,16.23
2023-04-08T09:03:24.998Z,16.25
2023-04-08T09:05:55.173Z,19.38
2023-04-08T09:08:29.719Z,20.27
2023-04-08T09:11:11.848Z,17.50
2023-04-08T09:13:51.685Z,15.73
2023-04-08T09:16:23.548Z,15.93
2023-04-08T09:18:51.000Z,18.65
2023-04-08T09:21:22.717Z,15.10
2023-04-08T09:23:52.187Z,14.85
2023-04-08T09:26:25.026Z,16.25
2023-04-08T09:29:24.915Z,16.20
2023-04-08T09:32:00.335Z,14.43
2023-04-08T09:34:29.843Z,14.43
2023-04-08T09:36:57.250Z,14.30
2023-04-08T09:39:24.823Z,15.30
2023-04-08T09:41:53.136Z,16.23
2023-04-08T09:44:22.284Z,15.85
2023-04-08T09:46:52.915Z,16.73
2023-04-08T09:49:29.093Z,15.90
2023-04-08T09:52:12.110Z,15.55
2023-04-08T09:55:13.818Z,14.05
2023-04-08T09:57:47.747Z,16.23
2023-04-08T10:00:16.996Z,15.18
2023-04-08T10:03:12.460Z,15.07
2023-04-08T10:05:44.101Z,14.63
2023-04-08T10:08:11.861Z,14.50
2023-04-08T10:10:41.928Z,14.15
2023-04-08T10:13:09.983Z,17.63
2023-04-08T10:15:39.818Z,16.73
2023-04-08T10:18:09.714Z,14.57
2023-04-08T10:20:38.258Z,14.35
2023-04-08T10:23:17.215Z,14.27
2023-04-08T10:25:49.377Z,15.27
2023-04-08T10:28:19.552Z,15.10
2023-04-08T10:30:53.412Z,16.55
2023-04-08T10:33:36.072Z,14.63
2023-04-08T10:36:15.640Z,16.23
2023-04-08T10:38:44.095Z,13.25
2023-04-08T10:41:14.574Z,12.55
2023-04-08T10:43:42.064Z,13.40
2023-04-08T10:46:12.156Z,14.13
2023-04-08T10:48:39.777Z,13.15
2023-04-08T10:51:07.104Z,13.77
2023-04-08T10:53:36.408Z,12.20
2023-04-08T10:56:18.125Z,13.52
2023-04-08T10:58:50.247Z,14.25
2023-04-08T11:01:18.067Z,19.45
2023-04-08T11:03:45.734Z,18.13
2023-04-08T11:06:13.406Z,14.07
2023-04-08T11:08:41.889Z,14.10
2023-04-08T11:11:11.896Z,15.15
2023-04-08T11:13:52.194Z,13.95
2023-04-08T11:16:23.327Z,16.90
2023-04-08T11:18:51.832Z,15.30
2023-04-08T11:21:22.532Z,14.30
2023-04-08T11:23:55.073Z,12.95
2023-04-08T11:26:26.006Z,11.63
2023-04-08T11:28:56.481Z,13.40
2023-04-08T11:31:24.976Z,11.73
2023-04-08T11:33:54.850Z,11.95
2023-04-08T11:36:22.657Z,11.75
2023-04-08T11:38:50.370Z,11.77
2023-04-08T11:41:24.935Z,13.77
2023-04-08T11:43:57.392Z,10.40
2023-04-08T11:46:25.224Z,10.02
2023-04-08T11:49:08.237Z,11.38
2023-04-08T11:51:56.686Z,12.95
2023-04-08T11:54:31.490Z,9.73
2023-04-08T11:56:59.791Z,9.05
2023-04-08T11:59:29.326Z,10.25
2023-04-08T12:01:57.695Z,9.50
2023-04-08T12:04:25.603Z,12.00
2023-04-08T12:06:53.664Z,10.70
2023-04-08T12:09:20.809Z,10.93
2023-04-08T12:11:53.236Z,12.70
2023-04-08T12:14:22.329Z,13.52
2023-04-08T12:16:49.626Z,14.82
2023-04-08T12:19:17.113Z,21.38
2023-04-08T12:21:44.556Z,12.55
2023-04-08T12:24:12.075Z,13.90
2023-04-08T12:26:39.572Z,13.70
2023-04-08T12:29:09.667Z,17.95
2023-04-08T12:31:39.055Z,14.75
2023-04-08T12:34:07.250Z,19.67
2023-04-08T12:36:34.522Z,17.30
2023-04-08T12:39:02.965Z,19.83
2023-04-08T12:41:30.444Z,15.25
2023-04-08T12:43:58.849Z,14.15
2023-04-08T12:46:26.436Z,14.75
2023-04-08T12:49:04.693Z,12.48
2023-04-08T12:51:32.711Z,11.77
